createdAt,value
2022-08-28T00:03:30.978Z,98245.9
2022-08-28T00:09:05.853Z,98243.5
2022-08-28T00:14:41.301Z,98245.9
2022-08-28T00:20:18.205Z,98248.1
2022-08-28T00:25:55.883Z,98244.7
2022-08-28T00:31:31.098Z,98243.1
2022-08-28T00:37:07.018Z,98240.1
2022-08-28T00:43:05.629Z,98232.4
2022-08-28T00:48:39.598Z,98227.7
2022-08-28T00:54:14.516Z,98229.2
2022-08-28T00:59:53.518Z,98222
2022-08-28T01:05:28.186Z,98227.2
2022-08-28T01:11:02.986Z,98235.4
2022-08-28T01:16:37.837Z,98231.7
2022-08-28T01:22:12.849Z,98239.1
2022-08-28T01:27:47.568Z,98238.8
2022-08-28T01:33:28.783Z,98232.1
2022-08-28T01:39:04.657Z,98231.9
2022-08-28T01:45:01.343Z,98228.9
2022-08-28T01:50:34.586Z,98241.6
2022-08-28T01:56:09.387Z,98246
2022-08-28T02:01:44.662Z,98252.1
2022-08-28T02:07:20.194Z,98247.3
2022-08-28T02:12:59.694Z,98244.4
2022-08-28T02:18:34.738Z,98246.2
2022-08-28T02:24:19.461Z,98244
2022-08-28T02:29:54.536Z,98237.3
2022-08-28T02:35:30.271Z,98235.6
2022-08-28T02:41:04.995Z,98236.9
2022-08-28T02:46:40.316Z,98235.1
2022-08-28T02:52:16.038Z,98230.9
2022-08-28T02:57:51.019Z,98228
2022-08-28T03:03:25.735Z,98229.1
2022-08-28T03:09:00.567Z,98228.4
2022-08-28T03:14:38.181Z,98227.3
2022-08-28T03:20:14.260Z,98222.7
2022-08-28T03:25:49.284Z,98217
2022-08-28T03:31:24.086Z,98220.7
2022-08-28T03:36:58.893Z,98220.7
2022-08-28T03:42:55.358Z,98223.8
2022-08-28T03:48:29.028Z,98217.8
2022-08-28T03:54:03.850Z,98222.6
2022-08-28T03:59:38.589Z,98226.7
2022-08-28T04:05:14.211Z,98222.9
2022-08-28T04:10:49.201Z,98222.8
2022-08-28T04:16:24.636Z,98220.5
2022-08-28T04:22:01.244Z,98227.9
2022-08-28T04:27:36.403Z,98229.5
2022-08-28T04:33:12.377Z,98228.4
2022-08-28T04:38:47.172Z,98232.9
2022-08-28T04:44:43.740Z,98230.2
2022-08-28T04:50:16.431Z,98233.2
2022-08-28T04:55:55.817Z,98232
2022-08-28T05:01:31.032Z,98240.1
2022-08-28T05:07:06.058Z,98247.1
2022-08-28T05:12:40.985Z,98242
2022-08-28T05:18:15.742Z,98239
2022-08-28T05:23:51.689Z,98243.8
2022-08-28T05:29:26.469Z,98247.5
2022-08-28T05:35:01.266Z,98240.7
2022-08-28T05:40:36.563Z,98248.7
2022-08-28T05:46:13.529Z,98252.7
2022-08-28T05:51:49.180Z,98263.7
2022-08-28T05:57:24.168Z,98269
2022-08-28T06:02:58.804Z,98265.8
2022-08-28T06:08:36.451Z,98269.4
2022-08-28T06:14:11.610Z,98274.8
2022-08-28T06:19:46.563Z,98279.7
2022-08-28T06:25:21.466Z,98284.5
2022-08-28T06:31:29.847Z,98279.3
2022-08-28T06:37:09.574Z,98277.1
2022-08-28T06:43:06.113Z,98277.5
2022-08-28T06:48:38.689Z,98276.7
2022-08-28T06:54:13.409Z,98287.1
2022-08-28T06:59:58.159Z,98290.8
2022-08-28T07:05:32.884Z,98292.9
2022-08-28T07:11:07.913Z,98288.9
2022-08-28T07:16:43.436Z,98284
2022-08-28T07:22:18.373Z,98285.8
2022-08-28T07:27:54.249Z,98295.4
2022-08-28T07:33:28.995Z,98293.7
2022-08-28T07:39:04.005Z,98286.8
2022-08-28T07:45:00.587Z,98293.1
2022-08-28T07:50:33.265Z,98299
2022-08-28T07:56:08.073Z,98300.9
2022-08-28T08:01:43.367Z,98296
2022-08-28T08:07:19.964Z,98296.3
2022-08-28T08:12:55.279Z,98303
2022-08-28T08:18:36.016Z,98301.4
2022-08-28T08:24:20.347Z,98292.7
2022-08-28T08:29:58.280Z,98285.9
2022-08-28T08:35:33.012Z,98284.4
2022-08-28T08:41:08.059Z,98291.1
2022-08-28T08:46:43.266Z,98289.4
2022-08-28T08:52:18.985Z,98293
2022-08-28T08:57:53.957Z,98291.4
2022-08-28T09:03:29.116Z,98294.5
2022-08-28T09:09:04.522Z,98297.1
2022-08-28T09:14:39.371Z,98297.9
2022-08-28T09:20:14.628Z,98305.9
2022-08-28T09:25:51.863Z,98308.9
2022-08-28T09:31:29.515Z,98316.2
2022-08-28T09:37:06.409Z,98314.9
2022-08-28T09:42:41.283Z,98309.4
2022-08-28T09:48:16.572Z,98316.1
2022-08-28T09:53:51.748Z,98310.3
2022-08-28T09:59:26.394Z,98311.1
2022-08-28T10:05:01.384Z,98315.2
2022-08-28T10:10:36.576Z,98311.1
2022-08-28T10:16:11.690Z,98313.3
2022-08-28T10:21:47.037Z,98311.1
2022-08-28T10:27:21.855Z,98310
2022-08-28T10:32:56.911Z,98314.8
2022-08-28T10:38:32.743Z,98309.8
2022-08-28T10:44:08.117Z,98310.1
2022-08-28T10:49:42.938Z,98309.4
2022-08-28T10:55:18.138Z,98308
2022-08-28T11:00:52.836Z,98307.1
2022-08-28T11:06:27.899Z,98307.8
2022-08-28T11:12:03.154Z,98299.7
2022-08-28T11:17:38.053Z,98298.9
2022-08-28T11:23:15.462Z,98297.5
2022-08-28T11:28:53.876Z,98291.7
2022-08-28T11:34:36.827Z,98285.6
2022-08-28T11:40:12.056Z,98274.2
2022-08-28T11:45:48.825Z,98274.5
2022-08-28T11:51:24.909Z,98276
2022-08-28T11:57:01.644Z,98280.2
2022-08-28T12:02:37.324Z,98279.1
2022-08-28T12:08:14.359Z,98280.7
2022-08-28T12:13:49.226Z,98276.7
2022-08-28T12:19:25.018Z,98270.7
2022-08-28T12:24:59.848Z,98274
2022-08-28T12:30:36.475Z,98264.2
2022-08-28T12:36:11.974Z,98266.2
2022-08-28T12:42:08.746Z,98256.3
2022-08-28T12:47:41.453Z,98258.7
2022-08-28T12:53:16.327Z,98259.6
2022-08-28T12:59:01.002Z,98251.8
2022-08-28T13:04:40.321Z,98247.6
2022-08-28T13:10:15.182Z,98242
2022-08-28T13:15:50.100Z,98232.4
2022-08-28T13:21:35.386Z,98231.8
2022-08-28T13:27:10.336Z,98225.1
2022-08-28T13:32:45.131Z,98218.6
2022-08-28T13:38:25.637Z,98219
2022-08-28T13:44:22.859Z,98211.3
2022-08-28T13:49:56.665Z,98205.9
2022-08-28T13:55:31.319Z,98198
2022-08-28T14:01:06.612Z,98198.6
2022-08-28T14:06:42.512Z,98191.3
2022-08-28T14:12:17.683Z,98189
2022-08-28T14:17:52.664Z,98187.8
2022-08-28T14:23:27.593Z,98175.9
2022-08-28T14:29:03.568Z,98165.3
2022-08-28T14:34:38.351Z,98159.2
2022-08-28T14:40:17.293Z,98158
2022-08-28T14:45:54.583Z,98150.2
2022-08-28T14:51:30.095Z,98142.3
2022-08-28T14:57:05.588Z,98141.2
2022-08-28T15:02:41.606Z,98145.3
2022-08-28T15:08:16.692Z,98143.5
2022-08-28T15:13:52.557Z,98139.1
2022-08-28T15:19:27.439Z,98139
2022-08-28T15:25:02.326Z,98136.7
2022-08-28T15:30:37.237Z,98137.3
2022-08-28T15:36:23.558Z,98135.1
2022-08-28T15:42:20.132Z,98132.8
2022-08-28T15:47:54.049Z,98138.3
2022-08-28T15:53:28.728Z,98137.3
2022-08-28T15:59:03.405Z,98137.8
2022-08-28T16:04:38.091Z,98128.6
2022-08-28T16:10:13.980Z,98131
2022-08-28T16:15:48.729Z,98132.4
2022-08-28T16:21:28.409Z,98125.8
2022-08-28T16:27:13.168Z,98124.3
2022-08-28T16:32:56.013Z,98124
2022-08-28T16:38:33.739Z,98119.8
2022-08-28T16:44:32.750Z,98119.3
2022-08-28T16:50:05.464Z,98114.6
2022-08-28T16:55:42.858Z,98116.2
2022-08-28T17:01:21.159Z,98116.1
2022-08-28T17:06:59.548Z,98110.1
2022-08-28T17:12:34.440Z,98116.8
2022-08-28T17:18:10.768Z,98114.5
2022-08-28T17:23:45.502Z,98108.8
2022-08-28T17:29:20.419Z,98101.5
2022-08-28T17:34:55.021Z,98099.3
2022-08-28T17:40:30.387Z,98101
2022-08-28T17:46:06.143Z,98101.4
2022-08-28T17:51:44.945Z,98099.1
2022-08-28T17:57:20.126Z,98101
2022-08-28T18:02:58.249Z,98101.7
2022-08-28T18:08:36.113Z,98096.3
2022-08-28T18:14:10.992Z,98102.5
2022-08-28T18:19:49.733Z,98100.1
2022-08-28T18:25:25.578Z,98101.2
2022-08-28T18:31:00.944Z,98118.4
2022-08-28T18:36:36.137Z,98125.2
2022-08-28T18:42:32.614Z,98123.5
2022-08-28T18:48:05.518Z,98127.4
2022-08-28T18:53:43.829Z,98132.7
2022-08-28T18:59:18.482Z,98135.8
2022-08-28T19:04:53.227Z,98142.6
2022-08-28T19:10:35.594Z,98140.8
2022-08-28T19:16:11.108Z,98145.4
2022-08-28T19:21:46.645Z,98154.7
2022-08-28T19:27:22.466Z,98160.3
2022-08-28T19:32:58.192Z,98165.1
2022-08-28T19:38:33.018Z,98176.1
2022-08-28T19:44:29.781Z,98186.8
2022-08-28T19:50:03.494Z,98197.2
2022-08-28T19:55:38.276Z,98201.9
2022-08-28T20:01:13.687Z,98208.6
2022-08-28T20:06:48.888Z,98210.7
2022-08-28T20:12:23.735Z,98212.8
2022-08-28T20:17:58.533Z,98222.6
2022-08-28T20:23:33.207Z,98226.6
2022-08-28T20:29:07.900Z,98223.8
2022-08-28T20:34:45.090Z,98222.2
2022-08-28T20:40:21.371Z,98221.5
2022-08-28T20:45:57.148Z,98220.2
2022-08-28T20:51:32.678Z,98231.3
2022-08-28T20:57:08.192Z,98230.8
2022-08-28T21:02:42.865Z,98228.7
2022-08-28T21:08:17.573Z,98232
2022-08-28T21:13:52.471Z,98228.6
2022-08-28T21:19:31.427Z,98220.9
2022-08-28T21:25:15.567Z,98227.1
2022-08-28T21:30:50.703Z,98244.6
2022-08-28T21:36:26.202Z,98268
2022-08-28T21:42:22.735Z,98265.2
2022-08-28T21:47:55.579Z,98263
2022-08-28T21:53:30.467Z,98276.2
2022-08-28T21:59:05.487Z,98284.1
2022-08-28T22:04:40.233Z,98277.7
2022-08-28T22:10:15.074Z,98273.1
2022-08-28T22:15:49.802Z,98271.2
2022-08-28T22:21:25.135Z,98276.7
2022-08-28T22:27:00.114Z,98273
2022-08-28T22:32:36.044Z,98274.5
2022-08-28T22:38:11.251Z,98279.7
2022-08-28T22:44:07.695Z,98277
2022-08-28T22:49:40.404Z,98273.5
2022-08-28T22:55:15.158Z,98275.3
2022-08-28T23:00:49.943Z,98274.3
2022-08-28T23:06:24.672Z,98271.5
2022-08-28T23:12:00.893Z,98274.6
2022-08-28T23:17:37.115Z,98272.6
2022-08-28T23:23:11.970Z,98268
2022-08-28T23:28:46.893Z,98261.2
2022-08-28T23:34:21.695Z,98263.4
2022-08-28T23:40:01.460Z,98282.3
2022-08-28T23:45:37.879Z,98293.3
2022-08-28T23:51:14.223Z,98277.5
2022-08-28T23:56:51.389Z,98266.5
